Time;durP1;ratioP1;P1;durP2;ratioP2;P2;SDS_P1;SDS_P2;PMS_P1;PMS_P2;Temp;Humidity;BMP_temperature;BMP_pressure;BME280_temperature;BME280_humidity;BME280_pressure;Samples;Min_cycle;Max_cycle;Signal;HPM_P1;HPM_P2
2021/08/23 00:00:39;;;;;;;4.40;3.97;;;14.40;99.90;;;;;;6266405;22;20658;-92
2021/08/23 00:03:05;;;;;;;4.63;3.80;;;14.40;99.90;;;;;;6266008;22;20166;-91
2021/08/23 00:05:35;;;;;;;5.43;3.90;;;14.50;99.90;;;;;;6265229;22;20389;-92
2021/08/23 00:08:00;;;;;;;5.60;3.83;;;14.50;99.90;;;;;;6239192;22;20428;-91
2021/08/23 00:10:27;;;;;;;6.00;4.30;;;14.50;99.90;;;;;;6265865;22;20393;-91
2021/08/23 00:12:52;;;;;;;4.50;4.10;;;14.50;99.90;;;;;;6266010;22;20234;-91
2021/08/23 00:15:18;;;;;;;6.67;4.27;;;14.50;99.90;;;;;;6265506;22;20926;-91
2021/08/23 00:17:44;;;;;;;5.90;4.73;;;14.50;99.90;;;;;;6266947;22;20162;-91
2021/08/23 00:20:13;;;;;;;5.53;4.17;;;14.50;99.90;;;;;;6266934;22;20444;-91
2021/08/23 00:22:51;;;;;;;5.20;4.80;;;14.40;99.90;;;;;;6240116;22;20154;-90
2021/08/23 00:25:18;;;;;;;5.43;5.03;;;14.50;99.90;;;;;;6265547;22;20425;-90
2021/08/23 00:27:44;;;;;;;5.43;4.17;;;14.50;99.90;;;;;;6241449;22;20397;-90
2021/08/23 00:30:13;;;;;;;4.10;3.80;;;14.60;99.90;;;;;;6240224;22;20405;-89
2021/08/23 00:32:39;;;;;;;4.17;3.80;;;14.60;99.90;;;;;;6241039;22;20423;-90
2021/08/23 00:35:05;;;;;;;5.57;3.53;;;14.50;99.90;;;;;;6240379;22;20458;-90
2021/08/23 00:37:31;;;;;;;4.30;3.90;;;14.50;99.90;;;;;;6240568;22;20447;-90
2021/08/23 00:39:57;;;;;;;6.63;3.67;;;14.60;99.90;;;;;;6264342;22;20638;-90
2021/08/23 00:42:23;;;;;;;4.63;3.90;;;14.60;99.90;;;;;;6265148;22;20166;-90
2021/08/23 00:44:48;;;;;;;5.50;3.40;;;14.70;99.90;;;;;;6265534;22;20150;-90
2021/08/23 00:47:14;;;;;;;4.90;3.97;;;14.60;99.90;;;;;;6240018;22;20162;-90
2021/08/23 00:49:40;;;;;;;4.33;4.00;;;14.60;99.90;;;;;;6263022;22;20182;-90
2021/08/23 00:52:08;;;;;;;4.20;3.63;;;14.60;99.90;;;;;;6264299;22;20166;-89
2021/08/23 00:54:34;;;;;;;5.17;4.20;;;14.60;99.90;;;;;;6240420;22;20180;-89
2021/08/23 00:57:04;;;;;;;6.27;4.10;;;14.70;99.90;;;;;;6236558;22;20805;-90
2021/08/23 00:59:36;;;;;;;4.20;3.80;;;14.70;99.90;;;;;;6238994;22;20463;-89
2021/08/23 01:02:11;;;;;;;4.67;4.07;;;14.70;99.90;;;;;;6238554;22;20390;-90
2021/08/23 01:04:58;;;;;;;6.13;3.73;;;14.70;99.90;;;;;;6265389;22;20404;-91
2021/08/23 01:07:31;;;;;;;6.20;3.70;;;14.70;99.90;;;;;;6265021;22;20408;-91
2021/08/23 01:10:02;;;;;;;3.67;3.37;;;14.70;99.90;;;;;;6238444;22;20386;-90
2021/08/23 01:12:31;;;;;;;5.17;3.83;;;14.70;99.90;;;;;;6237255;22;20607;-91
2021/08/23 01:14:59;;;;;;;5.03;3.90;;;14.70;99.90;;;;;;6264854;22;20884;-90
2021/08/23 01:17:25;;;;;;;3.53;3.23;;;14.70;99.90;;;;;;6264803;22;20970;-90
2021/08/23 01:19:56;;;;;;;4.60;3.23;;;14.70;99.90;;;;;;6265211;22;20594;-90
2021/08/23 01:22:26;;;;;;;9.50;4.30;;;14.70;99.90;;;;;;6237884;22;20158;-90
2021/08/23 01:24:55;;;;;;;5.20;4.70;;;14.70;99.90;;;;;;6239188;22;20774;-91
2021/08/23 01:27:21;;;;;;;5.30;4.30;;;14.70;99.90;;;;;;6240256;22;20802;-91
2021/08/23 01:30:10;;;;;;;5.87;3.90;;;14.60;99.90;;;;;;6258406;22;20412;-90
2021/08/23 01:32:39;;;;;;;4.87;4.13;;;14.70;99.90;;;;;;6238708;22;20401;-91
2021/08/23 01:35:07;;;;;;;4.57;3.63;;;14.70;99.90;;;;;;6239090;22;20416;-90
2021/08/23 01:37:35;;;;;;;4.27;3.87;;;14.70;99.90;;;;;;6238834;22;20755;-90
2021/08/23 01:40:02;;;;;;;4.30;3.53;;;14.70;99.90;;;;;;6238853;22;20444;-90
2021/08/23 01:42:28;;;;;;;3.53;3.23;;;14.80;99.90;;;;;;6237697;22;21004;-90
2021/08/23 01:44:53;;;;;;;3.53;3.23;;;14.70;99.90;;;;;;6238080;22;20409;-91
2021/08/23 01:47:19;;;;;;;3.77;3.47;;;14.70;99.90;;;;;;6260969;22;20915;-91
2021/08/23 01:49:45;;;;;;;4.33;3.83;;;14.70;99.90;;;;;;6211588;22;1187281;-91
2021/08/23 01:52:12;;;;;;;4.17;3.77;;;14.70;99.90;;;;;;6263231;22;20212;-91
2021/08/23 01:54:44;;;;;;;3.67;3.33;;;14.70;99.90;;;;;;6264175;22;20236;-91
2021/08/23 01:57:12;;;;;;;4.57;3.50;;;14.80;99.90;;;;;;6264525;22;20400;-91
2021/08/23 01:59:38;;;;;;;5.03;3.70;;;14.80;99.90;;;;;;6237878;22;20437;-91
2021/08/23 02:02:04;;;;;;;4.77;3.70;;;14.80;99.90;;;;;;6264058;22;20855;-90
2021/08/23 02:04:29;;;;;;;4.00;3.70;;;14.80;99.90;;;;;;6264344;22;20597;-90
2021/08/23 02:06:55;;;;;;;4.03;3.63;;;14.80;99.90;;;;;;6264192;22;20165;-90
2021/08/23 02:09:21;;;;;;;4.53;4.20;;;14.80;99.90;;;;;;6265359;22;20169;-91
2021/08/23 02:11:46;;;;;;;5.23;3.90;;;14.80;99.90;;;;;;6264364;22;20166;-91
2021/08/23 02:14:12;;;;;;;4.40;3.60;;;14.80;99.90;;;;;;6264095;22;20169;-91
2021/08/23 02:16:40;;;;;;;4.43;4.07;;;14.80;99.90;;;;;;6265271;22;20593;-91
2021/08/23 02:19:07;;;;;;;4.90;3.50;;;14.80;99.90;;;;;;6263881;22;20476;-91
2021/08/23 02:21:51;;;;;;;5.60;4.30;;;14.80;99.90;;;;;;6238211;22;20412;-90
2021/08/23 02:24:18;;;;;;;3.40;3.10;;;14.70;99.90;;;;;;6239667;22;20384;-91
2021/08/23 02:26:44;;;;;;;5.93;3.20;;;14.70;99.90;;;;;;6238886;22;20393;-91
2021/08/23 02:29:10;;;;;;;4.90;3.53;;;14.70;99.90;;;;;;6239750;22;20469;-91
2021/08/23 02:31:35;;;;;;;3.90;3.40;;;14.70;99.90;;;;;;6264767;22;20728;-90
2021/08/23 02:34:01;;;;;;;5.30;3.40;;;14.70;99.90;;;;;;6264029;22;20158;-90
2021/08/23 02:36:27;;;;;;;4.53;3.60;;;14.70;99.90;;;;;;6264317;22;20170;-90
2021/08/23 02:38:53;;;;;;;8.60;3.30;;;14.70;99.90;;;;;;6263386;22;20435;-90
2021/08/23 02:41:18;;;;;;;3.97;3.57;;;14.80;99.90;;;;;;6264040;22;20493;-90
2021/08/23 02:43:44;;;;;;;4.40;3.47;;;14.70;99.90;;;;;;6264352;22;20154;-90
2021/08/23 02:46:10;;;;;;;3.80;3.43;;;14.70;99.90;;;;;;6266652;22;20177;-90
2021/08/23 02:48:35;;;;;;;3.63;3.10;;;14.70;99.90;;;;;;6265570;22;20173;-90
2021/08/23 02:51:01;;;;;;;4.20;3.10;;;14.70;99.90;;;;;;6265607;22;20272;-91
2021/08/23 02:53:27;;;;;;;8.53;3.80;;;14.80;99.90;;;;;;6265898;22;20154;-90
2021/08/23 02:55:52;;;;;;;6.10;3.33;;;14.70;99.90;;;;;;6266541;22;20604;-91
2021/08/23 02:58:18;;;;;;;6.77;3.33;;;14.80;99.90;;;;;;6268062;22;20185;-91
2021/08/23 03:00:44;;;;;;;6.30;3.43;;;14.80;99.90;;;;;;6268385;22;20277;-91
2021/08/23 03:03:09;;;;;;;3.93;3.23;;;14.80;99.90;;;;;;6268604;22;20499;-90
2021/08/23 03:05:35;;;;;;;4.97;3.60;;;14.70;99.90;;;;;;6268707;22;20162;-91
2021/08/23 03:08:00;;;;;;;3.90;3.10;;;14.80;99.90;;;;;;6267340;22;20169;-90
2021/08/23 03:10:26;;;;;;;6.50;3.57;;;14.80;99.90;;;;;;6268137;22;20165;-90
2021/08/23 03:12:52;;;;;;;3.80;3.50;;;14.80;99.90;;;;;;6268502;22;21045;-90
2021/08/23 03:15:20;;;;;;;4.87;3.00;;;14.90;99.90;;;;;;6268396;22;20166;-92
2021/08/23 03:17:46;;;;;;;3.43;3.13;;;14.80;99.90;;;;;;6268492;22;20530;-92
2021/08/23 03:20:12;;;;;;;6.60;3.73;;;14.80;99.90;;;;;;6242606;22;20481;-92
2021/08/23 03:22:38;;;;;;;6.03;3.97;;;14.80;99.90;;;;;;6270077;22;20380;-92
2021/08/23 03:25:04;;;;;;;3.60;3.30;;;14.70;99.90;;;;;;6268384;22;20496;-92
2021/08/23 03:27:30;;;;;;;5.53;3.40;;;14.90;99.90;;;;;;6242360;22;20158;-91
2021/08/23 03:30:00;;;;;;;4.10;3.47;;;14.90;99.90;;;;;;6268205;22;20393;-91
2021/08/23 03:32:38;;;;;;;3.30;3.03;;;14.90;99.90;;;;;;6294101;22;20933;-92
2021/08/23 03:35:12;;;;;;;5.33;3.70;;;14.80;99.90;;;;;;6268028;22;20473;-92
2021/08/23 03:37:38;;;;;;;3.23;2.93;;;14.80;99.90;;;;;;6268381;22;20393;-92
2021/08/23 03:40:12;;;;;;;4.00;3.60;;;14.90;99.90;;;;;;6267788;22;20513;-92
2021/08/23 03:42:38;;;;;;;4.27;3.70;;;14.90;99.90;;;;;;6243205;22;20165;-92
2021/08/23 03:45:07;;;;;;;3.47;3.17;;;14.80;99.90;;;;;;6268395;22;20401;-92
2021/08/23 03:47:33;;;;;;;3.90;3.50;;;14.80;99.90;;;;;;6266195;22;20562;-92
2021/08/23 03:50:03;;;;;;;4.33;3.60;;;14.80;99.90;;;;;;6211735;23;20436;-90
2021/08/23 03:52:29;;;;;;;5.57;3.60;;;14.70;99.90;;;;;;6212130;23;20217;-90
2021/08/23 03:54:55;;;;;;;4.23;3.90;;;14.70;99.90;;;;;;6212423;23;20386;-90
2021/08/23 03:57:20;;;;;;;4.33;3.57;;;14.70;99.90;;;;;;6212602;23;20242;-90
2021/08/23 03:59:47;;;;;;;4.27;3.70;;;14.70;99.90;;;;;;6211677;23;20195;-90
2021/08/23 04:02:19;;;;;;;3.60;3.30;;;14.70;99.90;;;;;;6212367;23;20213;-91
2021/08/23 04:04:44;;;;;;;6.07;3.10;;;14.70;99.90;;;;;;6212445;23;20394;-91
2021/08/23 04:07:10;;;;;;;3.50;3.20;;;14.70;99.90;;;;;;6209358;23;20485;-91
2021/08/23 04:09:38;;;;;;;5.37;3.13;;;14.70;99.90;;;;;;6210624;23;20163;-91
2021/08/23 04:12:03;;;;;;;3.77;3.47;;;14.70;99.90;;;;;;6212380;23;20554;-90
2021/08/23 04:14:29;;;;;;;4.20;3.67;;;14.70;99.90;;;;;;6212013;23;20392;-90
2021/08/23 04:16:55;;;;;;;4.50;3.57;;;14.80;99.90;;;;;;6211579;23;20159;-91
2021/08/23 04:19:21;;;;;;;3.87;3.57;;;14.80;99.90;;;;;;6212353;23;20463;-91
2021/08/23 04:21:46;;;;;;;4.20;3.37;;;14.80;99.90;;;;;;6211778;23;20646;-91
2021/08/23 04:24:12;;;;;;;3.50;3.20;;;14.80;99.90;;;;;;6211847;23;20170;-92
2021/08/23 04:26:37;;;;;;;6.20;3.50;;;14.80;99.90;;;;;;6211840;23;20162;-89
2021/08/23 04:29:05;;;;;;;6.77;3.77;;;14.70;99.90;;;;;;6210829;23;20632;-90
2021/08/23 04:31:31;;;;;;;3.77;3.47;;;14.70;99.90;;;;;;6206722;23;20262;-92
2021/08/23 04:34:00;;;;;;;4.00;3.60;;;14.70;99.90;;;;;;6210159;23;20868;-90
2021/08/23 04:39:01;;;;;;;3.80;3.40;;;14.70;99.90;;;;;;6238412;23;20965;-91
2021/08/23 04:41:26;;;;;;;3.77;3.43;;;14.70;99.90;;;;;;6211393;23;20402;-91
2021/08/23 04:43:55;;;;;;;4.00;3.63;;;14.70;99.90;;;;;;6211967;23;20486;-90
2021/08/23 04:46:22;;;;;;;3.90;3.40;;;14.70;99.90;;;;;;6211347;23;20163;-90
2021/08/23 04:48:49;;;;;;;4.00;3.40;;;14.70;99.90;;;;;;6228809;22;20855;-89
2021/08/23 04:51:15;;;;;;;4.07;3.67;;;14.70;99.90;;;;;;6267268;22;20469;-88
2021/08/23 04:53:40;;;;;;;3.30;3.10;;;14.70;99.90;;;;;;6263099;22;20472;-87
2021/08/23 04:56:11;;;;;;;3.60;3.30;;;14.70;99.90;;;;;;6267065;22;20166;-88
2021/08/23 04:58:36;;;;;;;4.07;3.67;;;14.80;99.90;;;;;;6267447;22;20233;-89
2021/08/23 05:01:02;;;;;;;3.93;3.53;;;14.80;99.90;;;;;;6266372;22;20437;-89
2021/08/23 05:03:28;;;;;;;3.67;3.27;;;14.80;99.90;;;;;;6266675;22;20393;-88
2021/08/23 05:05:53;;;;;;;4.33;3.43;;;14.80;99.90;;;;;;6267269;22;20176;-93
2021/08/23 05:08:20;;;;;;;4.07;3.13;;;14.80;99.90;;;;;;6269652;22;20168;-93
2021/08/23 05:10:46;;;;;;;5.57;3.20;;;14.80;99.90;;;;;;6241183;22;20154;-90
2021/08/23 05:13:12;;;;;;;4.30;3.90;;;14.80;99.90;;;;;;6236330;22;20393;-90
2021/08/23 05:15:40;;;;;;;3.17;2.90;;;14.80;99.90;;;;;;6266364;22;20837;-93
2021/08/23 05:18:09;;;;;;;4.47;3.07;;;14.80;99.90;;;;;;6262579;22;20193;-91
2021/08/23 05:20:35;;;;;;;5.83;3.50;;;14.80;99.90;;;;;;6265247;22;20440;-89
2021/08/23 05:23:02;;;;;;;4.47;3.87;;;14.80;99.90;;;;;;6240958;22;20443;-90
2021/08/23 05:25:27;;;;;;;3.87;3.40;;;14.80;99.90;;;;;;6240761;22;20727;-89
2021/08/23 05:27:53;;;;;;;3.10;2.90;;;14.80;99.90;;;;;;6264583;22;20393;-91
2021/08/23 05:33:14;;;;;;;6.50;3.20;;;14.90;99.90;;;;;;6270484;22;20158;-91
2021/08/23 05:35:40;;;;;;;5.70;4.43;;;15.00;99.90;;;;;;6266621;22;20450;-94
2021/08/23 05:38:06;;;;;;;6.43;3.53;;;15.00;99.90;;;;;;6266952;22;20219;-92
2021/08/23 05:40:34;;;;;;;5.90;3.73;;;15.00;99.90;;;;;;6269033;22;20194;-92
2021/08/23 05:43:02;;;;;;;4.93;2.67;;;14.90;99.90;;;;;;6266402;22;20577;-91
2021/08/23 05:45:28;;;;;;;4.03;3.63;;;15.00;99.90;;;;;;6240930;22;20405;-90
2021/08/23 05:47:54;;;;;;;5.40;3.10;;;15.00;99.90;;;;;;6240249;22;20404;-93
2021/08/23 05:50:20;;;;;;;3.83;3.53;;;15.00;99.90;;;;;;6266106;22;20397;-93
2021/08/23 05:52:51;;;;;;;3.90;3.60;;;14.90;99.90;;;;;;6267978;22;20393;-93
2021/08/23 05:55:17;;;;;;;5.00;3.53;;;14.90;99.90;;;;;;6267159;22;20173;-95
2021/08/23 05:57:42;;;;;;;3.53;3.23;;;14.90;99.90;;;;;;6266397;22;20385;-91
2021/08/23 06:00:09;;;;;;;4.10;3.70;;;15.00;99.90;;;;;;6264975;22;20194;-90
2021/08/23 06:02:35;;;;;;;8.50;3.70;;;15.00;99.90;;;;;;6265056;22;20603;-92
2021/08/23 06:05:01;;;;;;;5.53;3.90;;;15.10;99.90;;;;;;6266484;22;20392;-90
2021/08/23 06:07:26;;;;;;;4.23;3.63;;;15.10;99.90;;;;;;6265858;22;20162;-91
2021/08/23 06:09:52;;;;;;;4.73;3.77;;;15.10;99.90;;;;;;6265231;22;20909;-90
2021/08/23 06:12:20;;;;;;;4.40;3.80;;;15.20;99.90;;;;;;6265261;22;20188;-92
2021/08/23 06:14:46;;;;;;;4.13;3.73;;;15.20;99.90;;;;;;6265690;22;20431;-93
2021/08/23 06:17:12;;;;;;;6.33;3.63;;;15.20;99.90;;;;;;6268454;22;20393;-93
2021/08/23 06:19:37;;;;;;;4.23;3.43;;;15.30;99.90;;;;;;6264978;22;20620;-92
2021/08/23 06:22:03;;;;;;;3.93;3.30;;;15.40;99.90;;;;;;6265078;22;20162;-90
2021/08/23 06:24:29;;;;;;;6.23;3.70;;;15.40;99.90;;;;;;6265500;22;20170;-93
2021/08/23 06:26:55;;;;;;;3.90;3.60;;;15.50;99.90;;;;;;6265648;22;20463;-94
2021/08/23 06:29:21;;;;;;;5.17;3.30;;;15.60;99.90;;;;;;6266720;22;20194;-91
2021/08/23 06:31:46;;;;;;;4.00;3.53;;;15.60;99.90;;;;;;6265272;22;20393;-92
2021/08/23 06:34:12;;;;;;;4.73;4.33;;;15.80;99.90;;;;;;6266274;22;20166;-95
2021/08/23 06:36:41;;;;;;;4.53;3.47;;;15.90;99.90;;;;;;6262769;22;20167;-92
2021/08/23 06:39:07;;;;;;;5.27;3.80;;;16.00;99.90;;;;;;6256909;22;20860;-89
2021/08/23 06:41:32;;;;;;;4.63;3.33;;;16.00;99.90;;;;;;6262911;22;20851;-90
2021/08/23 06:43:58;;;;;;;4.10;3.73;;;16.00;99.90;;;;;;6261700;22;20399;-89
2021/08/23 06:46:24;;;;;;;3.90;3.50;;;16.10;99.90;;;;;;6262621;22;20584;-85
2021/08/23 06:48:51;;;;;;;3.73;3.40;;;15.90;99.90;;;;;;6261572;22;20174;-88
2021/08/23 06:51:20;;;;;;;5.10;4.00;;;15.80;99.90;;;;;;6262779;22;20186;-87
2021/08/23 06:53:47;;;;;;;3.97;3.57;;;15.80;99.90;;;;;;6261822;22;20377;-87
2021/08/23 06:56:14;;;;;;;4.13;3.40;;;15.80;99.90;;;;;;6264383;22;20412;-86
2021/08/23 06:58:39;;;;;;;4.30;3.50;;;15.90;99.90;;;;;;6261102;22;20484;-86
2021/08/23 07:01:05;;;;;;;6.40;4.13;;;15.90;99.90;;;;;;6263109;22;20783;-85
2021/08/23 07:03:30;;;;;;;4.60;3.20;;;16.00;99.90;;;;;;6263464;22;20158;-86
2021/08/23 07:05:58;;;;;;;3.97;3.10;;;16.00;99.90;;;;;;6264526;22;20245;-85
2021/08/23 07:08:24;;;;;;;7.00;2.90;;;16.10;99.90;;;;;;6263768;22;20591;-85
2021/08/23 07:10:51;;;;;;;3.87;3.00;;;16.20;99.90;;;;;;6262285;22;20409;-85
2021/08/23 07:13:17;;;;;;;5.07;3.30;;;16.40;99.90;;;;;;6262578;22;20162;-84
2021/08/23 07:15:42;;;;;;;4.33;3.13;;;16.50;99.90;;;;;;6236742;22;20432;-85
2021/08/23 07:18:08;;;;;;;3.90;3.27;;;16.50;99.90;;;;;;6263439;22;20432;-86
2021/08/23 07:20:34;;;;;;;3.60;2.80;;;16.40;99.90;;;;;;6263752;22;20281;-86
2021/08/23 07:22:59;;;;;;;3.63;3.10;;;16.60;99.90;;;;;;6262018;22;20166;-86
2021/08/23 07:25:27;;;;;;;3.50;3.20;;;16.60;99.90;;;;;;6263623;22;20167;-87
2021/08/23 07:27:52;;;;;;;3.33;3.03;;;16.80;99.90;;;;;;6264073;22;20168;-87
2021/08/23 07:30:18;;;;;;;3.57;3.30;;;16.90;99.90;;;;;;6263390;22;20492;-86
2021/08/23 07:32:45;;;;;;;4.27;2.80;;;16.80;99.90;;;;;;6264352;22;20596;-86
2021/08/23 07:35:11;;;;;;;3.40;3.00;;;16.90;99.90;;;;;;6265154;22;20162;-86
2021/08/23 07:37:47;;;;;;;4.97;3.47;;;16.90;99.90;;;;;;6264032;22;20797;-88
2021/08/23 07:40:14;;;;;;;3.07;2.77;;;17.10;99.90;;;;;;6263364;22;20521;-87
2021/08/23 07:42:40;;;;;;;3.70;3.10;;;17.10;99.90;;;;;;6263619;22;20392;-87
2021/08/23 07:45:07;;;;;;;4.87;3.80;;;17.10;99.90;;;;;;6266049;22;20948;-86
2021/08/23 07:47:34;;;;;;;3.20;2.90;;;17.20;99.90;;;;;;6263146;22;20389;-86
2021/08/23 07:50:00;;;;;;;3.37;2.90;;;17.20;99.90;;;;;;6209200;23;20409;-86
2021/08/23 07:52:28;;;;;;;3.83;2.93;;;17.10;99.90;;;;;;6209944;23;20393;-87
2021/08/23 07:54:53;;;;;;;4.30;3.03;;;17.00;99.90;;;;;;6209590;23;20410;-87
2021/08/23 07:57:19;;;;;;;3.80;3.47;;;17.00;99.90;;;;;;6210185;23;20463;-87
2021/08/23 07:59:45;;;;;;;3.70;3.40;;;17.30;99.90;;;;;;6209983;23;20221;-87
2021/08/23 08:02:11;;;;;;;3.27;2.97;;;17.30;99.90;;;;;;6209343;23;20390;-86
2021/08/23 08:04:37;;;;;;;3.00;2.70;;;17.40;99.90;;;;;;6209266;23;20190;-87
2021/08/23 08:07:04;;;;;;;4.10;3.10;;;17.50;99.90;;;;;;6205742;23;20421;-86
2021/08/23 08:09:30;;;;;;;2.93;2.60;;;17.70;99.90;;;;;;6208957;23;20216;-86
2021/08/23 08:11:55;;;;;;;3.23;2.90;;;17.80;99.90;;;;;;6208123;23;20394;-85
2021/08/23 08:14:22;;;;;;;3.43;3.00;;;18.00;99.90;;;;;;6209618;23;20163;-86
2021/08/23 08:16:49;;;;;;;3.60;3.30;;;18.20;99.90;;;;;;6208151;23;20159;-86
2021/08/23 08:19:15;;;;;;;5.97;3.53;;;18.20;99.90;;;;;;6208417;23;20437;-86
2021/08/23 08:21:41;;;;;;;2.97;2.77;;;18.00;99.90;;;;;;6208423;23;20473;-86
2021/08/23 08:24:07;;;;;;;5.80;3.30;;;18.00;99.90;;;;;;6182452;23;20433;-86
2021/08/23 08:26:36;;;;;;;3.43;2.90;;;18.30;99.90;;;;;;6207675;23;20444;-87
2021/08/23 08:29:02;;;;;;;7.93;3.40;;;18.30;99.90;;;;;;6207666;23;20194;-87
2021/08/23 08:31:28;;;;;;;4.30;3.00;;;18.10;99.90;;;;;;6208568;23;20393;-86
2021/08/23 08:33:54;;;;;;;6.00;3.30;;;18.10;99.90;;;;;;6233099;23;20213;-87
2021/08/23 08:36:21;;;;;;;4.10;3.20;;;18.40;99.90;;;;;;6200073;23;20398;-85
2021/08/23 08:38:48;;;;;;;3.30;3.00;;;18.50;99.90;;;;;;6206962;23;20156;-86
2021/08/23 08:41:14;;;;;;;3.87;2.83;;;18.60;99.90;;;;;;6208139;23;20768;-87
2021/08/23 08:43:40;;;;;;;6.97;3.00;;;18.80;99.90;;;;;;6208725;23;20398;-87
2021/08/23 08:46:07;;;;;;;4.77;2.73;;;18.70;99.90;;;;;;6209145;23;20881;-88
2021/08/23 08:48:34;;;;;;;3.33;3.03;;;19.10;99.90;;;;;;6221603;22;20174;-87
2021/08/23 08:51:00;;;;;;;2.80;2.60;;;19.50;99.90;;;;;;6237117;22;20408;-88
2021/08/23 08:53:26;;;;;;;3.03;2.70;;;19.10;99.90;;;;;;6238465;22;20427;-88
2021/08/23 08:55:51;;;;;;;4.13;3.80;;;18.90;99.90;;;;;;6265168;22;20957;-89
2021/08/23 08:58:22;;;;;;;4.00;2.93;;;18.70;99.90;;;;;;6265243;22;20624;-89
2021/08/23 09:00:48;;;;;;;3.40;3.10;;;18.60;99.90;;;;;;6239101;22;20240;-86
2021/08/23 09:03:27;;;;;;;4.67;3.40;;;18.70;99.90;;;;;;6264449;22;20397;-86
2021/08/23 09:06:06;;;;;;;4.80;3.43;;;18.60;99.90;;;;;;6237771;22;20166;-88
2021/08/23 09:08:39;;;;;;;4.83;3.47;;;18.70;99.90;;;;;;6262695;22;20397;-87
2021/08/23 09:11:18;;;;;;;3.80;3.50;;;19.00;99.90;;;;;;6239106;22;20405;-87
2021/08/23 09:13:59;;;;;;;3.57;3.00;;;19.10;99.90;;;;;;6237774;22;20397;-87
2021/08/23 09:16:30;;;;;;;6.07;2.80;;;19.50;99.90;;;;;;6235179;22;20405;-89
2021/08/23 09:18:56;;;;;;;3.23;2.33;;;19.40;99.90;;;;;;6237703;22;20454;-89
2021/08/23 09:21:41;;;;;;;3.70;2.80;;;19.70;99.90;;;;;;6237983;22;20412;-92
2021/08/23 09:24:21;;;;;;;3.10;2.80;;;20.00;99.90;;;;;;6264623;22;20389;-89
2021/08/23 09:26:50;;;;;;;2.77;2.53;;;19.90;99.90;;;;;;6237041;22;20401;-89
2021/08/23 09:29:15;;;;;;;4.60;2.97;;;20.00;99.90;;;;;;6264137;22;20454;-87
2021/08/23 09:31:42;;;;;;;4.00;2.70;;;19.70;99.90;;;;;;6261700;22;20889;-87
2021/08/23 09:34:11;;;;;;;3.20;2.90;;;19.30;99.90;;;;;;6264198;22;20249;-88
2021/08/23 09:36:43;;;;;;;3.63;2.80;;;19.30;99.90;;;;;;6235798;22;20415;-90
2021/08/23 09:39:15;;;;;;;6.47;3.43;;;19.50;99.90;;;;;;6236904;22;20486;-88
2021/08/23 09:41:42;;;;;;;5.00;3.30;;;19.30;99.90;;;;;;6264251;22;20401;-88
2021/08/23 09:44:19;;;;;;;3.47;3.17;;;19.50;99.90;;;;;;6262434;22;20680;-88
2021/08/23 09:46:45;;;;;;;3.00;2.80;;;19.60;99.90;;;;;;6260781;22;20620;-88
2021/08/23 09:49:13;;;;;;;7.73;3.30;;;19.40;99.90;;;;;;6261480;22;20487;-88
2021/08/23 09:51:44;;;;;;;3.90;3.60;;;19.20;99.90;;;;;;6233705;22;20170;-87
2021/08/23 09:54:17;;;;;;;3.23;2.93;;;18.70;99.90;;;;;;6234629;22;20728;-88
2021/08/23 09:56:54;;;;;;;6.53;3.00;;;18.70;99.90;;;;;;6235358;22;20397;-87
2021/08/23 09:59:21;;;;;;;4.00;3.27;;;19.00;99.90;;;;;;6236151;22;20499;-87
2021/08/23 10:01:50;;;;;;;4.37;3.27;;;19.30;99.90;;;;;;6262214;22;20914;-89
2021/08/23 10:04:17;;;;;;;3.73;3.20;;;19.50;99.90;;;;;;6235037;22;20714;-88
2021/08/23 10:06:45;;;;;;;3.30;3.00;;;19.60;99.90;;;;;;6236383;22;20400;-88
2021/08/23 10:09:16;;;;;;;3.40;3.10;;;19.70;99.90;;;;;;6238497;22;20397;-88
2021/08/23 10:11:42;;;;;;;4.00;2.97;;;20.00;99.90;;;;;;6238994;22;20407;-88
2021/08/23 10:14:11;;;;;;;3.77;3.50;;;19.70;99.90;;;;;;6263227;22;20389;-88
2021/08/23 10:16:36;;;;;;;4.80;3.30;;;19.60;99.90;;;;;;6234013;22;20408;-88
2021/08/23 10:19:06;;;;;;;5.63;3.00;;;20.10;99.90;;;;;;6238266;22;20424;-88
2021/08/23 10:21:35;;;;;;;3.60;3.30;;;20.90;99.90;;;;;;6264148;22;20609;-88
2021/08/23 10:24:03;;;;;;;3.20;2.90;;;21.50;99.90;;;;;;6238185;22;20392;-88
2021/08/23 10:26:41;;;;;;;4.10;3.77;;;21.60;99.90;;;;;;6238552;22;20448;-88
2021/08/23 10:29:09;;;;;;;4.07;3.60;;;21.00;99.90;;;;;;6237085;22;20396;-88
2021/08/23 10:31:36;;;;;;;4.20;3.40;;;20.60;99.90;;;;;;6238366;22;20400;-88
2021/08/23 10:34:14;;;;;;;3.70;3.33;;;20.20;99.90;;;;;;6237377;22;20513;-88
2021/08/23 10:36:40;;;;;;;3.83;3.20;;;20.10;99.90;;;;;;6238250;22;21481;-88
2021/08/23 10:39:06;;;;;;;3.67;3.37;;;19.90;99.90;;;;;;6239834;22;20428;-88
2021/08/23 10:41:33;;;;;;;4.57;3.40;;;19.80;99.90;;;;;;6263940;22;20392;-88
2021/08/23 10:44:03;;;;;;;4.20;3.30;;;19.90;99.90;;;;;;6263893;22;20419;-88
2021/08/23 10:46:39;;;;;;;3.80;3.40;;;19.80;99.90;;;;;;6238481;22;20403;-88
2021/08/23 10:49:11;;;;;;;6.23;2.93;;;19.40;99.90;;;;;;6239137;22;20551;-88
2021/08/23 10:51:38;;;;;;;5.10;2.77;;;19.20;99.90;;;;;;6236724;22;20401;-88
2021/08/23 10:54:25;;;;;;;4.60;3.90;;;19.00;99.90;;;;;;6239545;22;20393;-88
2021/08/23 10:57:07;;;;;;;4.23;3.93;;;18.70;99.90;;;;;;6238210;22;20484;-87
2021/08/23 10:59:56;;;;;;;3.50;3.20;;;19.10;99.90;;;;;;6263709;22;20464;-88
2021/08/23 11:02:32;;;;;;;3.37;3.10;;;19.50;99.90;;;;;;6238645;22;20389;-89
2021/08/23 11:05:02;;;;;;;3.70;3.40;;;19.70;99.90;;;;;;6265114;22;20400;-88
2021/08/23 11:07:30;;;;;;;2.60;2.33;;;19.90;99.90;;;;;;6237791;22;20385;-88
2021/08/23 11:10:12;;;;;;;2.70;2.50;;;19.90;99.90;;;;;;6263419;22;20393;-88
2021/08/23 11:12:55;;;;;;;2.47;2.27;;;19.50;99.90;;;;;;6263990;22;20393;-88
2021/08/23 11:15:24;;;;;;;2.30;1.97;;;19.90;99.90;;;;;;6263309;22;20401;-87
2021/08/23 11:17:52;;;;;;;3.63;2.43;;;21.10;99.90;;;;;;6238323;22;20393;-88
2021/08/23 11:20:39;;;;;;;3.03;2.73;;;21.80;99.90;;;;;;6239819;22;20444;-87
2021/08/23 11:23:26;;;;;;;4.83;4.30;;;21.70;99.90;;;;;;6267480;22;20377;-88
2021/08/23 11:25:55;;;;;;;8.90;5.17;;;21.30;99.90;;;;;;6265075;22;20424;-88
2021/08/23 11:28:26;;;;;;;8.27;5.27;;;20.90;99.90;;;;;;6263545;22;20385;-89
2021/08/23 11:30:54;;;;;;;5.20;4.33;;;19.90;99.90;;;;;;6267769;22;20397;-90
2021/08/23 11:33:40;;;;;;;5.53;4.53;;;18.00;99.90;;;;;;6266102;22;20396;-89
2021/08/23 11:36:22;;;;;;;9.80;5.30;;;17.40;99.90;;;;;;6265612;22;20958;-89
2021/08/23 11:38:48;;;;;;;6.73;5.63;;;17.50;99.90;;;;;;6265388;22;20396;-89
2021/08/23 11:41:14;;;;;;;8.23;6.20;;;17.70;99.90;;;;;;6264547;22;20407;-89
2021/08/23 11:43:40;;;;;;;4.83;4.43;;;17.70;99.90;;;;;;6265305;22;20201;-90
2021/08/23 11:46:06;;;;;;;3.93;3.60;;;17.80;99.90;;;;;;6265310;22;20196;-89
2021/08/23 11:48:32;;;;;;;4.33;3.47;;;17.90;99.90;;;;;;6266041;22;20412;-89
2021/08/23 11:50:58;;;;;;;4.20;3.70;;;18.20;99.90;;;;;;6264810;22;20162;-90
2021/08/23 11:53:27;;;;;;;3.47;3.17;;;18.40;99.90;;;;;;6265795;22;20444;-89
2021/08/23 11:56:04;;;;;;;4.43;3.20;;;18.60;99.90;;;;;;6265108;22;20770;-89
2021/08/23 11:58:39;;;;;;;4.03;3.40;;;18.90;99.90;;;;;;6264821;22;20384;-89
2021/08/23 12:01:07;;;;;;;4.17;3.20;;;19.00;99.90;;;;;;6265348;22;20440;-89
2021/08/23 12:03:33;;;;;;;3.20;2.90;;;19.20;99.90;;;;;;6265187;22;20774;-89
2021/08/23 12:06:07;;;;;;;4.37;3.57;;;19.50;99.90;;;;;;6265810;22;20401;-89
2021/08/23 12:08:36;;;;;;;5.50;4.17;;;19.80;99.90;;;;;;6265966;22;20397;-89
2021/08/23 12:11:08;;;;;;;4.87;4.23;;;20.40;99.90;;;;;;6240188;22;20403;-89
2021/08/23 12:13:44;;;;;;;4.93;4.43;;;21.10;99.90;;;;;;6264601;22;20397;-89
2021/08/23 12:16:15;;;;;;;4.80;4.30;;;21.20;99.90;;;;;;6265187;22;20909;-89
2021/08/23 12:18:43;;;;;;;4.00;3.70;;;21.00;99.90;;;;;;6265689;22;20404;-89
2021/08/23 12:21:12;;;;;;;4.30;3.90;;;20.70;99.90;;;;;;6240294;22;20436;-89
2021/08/23 12:23:56;;;;;;;5.10;4.20;;;20.20;99.90;;;;;;6239896;22;20419;-89
2021/08/23 12:26:55;;;;;;;4.33;3.93;;;19.80;99.90;;;;;;6265366;22;20389;-89
2021/08/23 12:29:33;;;;;;;4.50;4.10;;;19.90;99.90;;;;;;6264627;22;20972;-89
2021/08/23 12:32:09;;;;;;;4.70;4.30;;;19.90;99.90;;;;;;6264391;22;20399;-88
2021/08/23 12:34:43;;;;;;;4.20;3.90;;;20.10;99.90;;;;;;6266264;22;20400;-88
2021/08/23 12:37:10;;;;;;;4.00;3.70;;;20.00;99.90;;;;;;6265353;22;20444;-89
2021/08/23 12:39:37;;;;;;;3.30;3.00;;;19.90;99.90;;;;;;6264842;22;20440;-88
2021/08/23 12:42:05;;;;;;;3.10;2.70;;;20.00;99.90;;;;;;6266697;22;20850;-88
2021/08/23 12:44:32;;;;;;;3.60;3.30;;;20.40;99.90;;;;;;6265301;22;20405;-89
2021/08/23 12:46:58;;;;;;;3.40;2.97;;;20.60;99.90;;;;;;6265124;22;20397;-88
2021/08/23 12:49:24;;;;;;;3.40;3.10;;;20.70;99.90;;;;;;6263237;22;20421;-88
2021/08/23 12:51:53;;;;;;;3.20;2.90;;;20.60;99.90;;;;;;6264031;22;20166;-88
2021/08/23 12:54:20;;;;;;;3.20;3.00;;;20.40;99.90;;;;;;6263415;22;20401;-89
2021/08/23 12:56:47;;;;;;;3.30;3.00;;;20.30;99.90;;;;;;6264697;22;20427;-88
2021/08/23 12:59:14;;;;;;;4.50;4.10;;;20.30;99.90;;;;;;6263076;22;20424;-88